Аэропорт: Ровно. Ровно

ICAO: UKLR

METAR:
Информация по данной станции не доступна
METAR:
2019-07-23 14:03:00
TAF UKLR 231403Z 2315/2324 32007G12MPS 9999 BKN020 SCT023CB PROB40 TEMPO 2315/2318 -TSRA